OEKJ

Al Kharj AB

Al Kharj, Saudi Arabia
TAF OEKJ 182300Z 1900/2006 VRB03KT 7000 SKC BECMG 1905/1907 02010KT
Issued Valid From Valid To
Apr-18 @ 23:00 UTC
(11 hours ago)
Apr-19 @ 00:00 UTC
(10 hours ago)
Apr-20 @ 06:00 UTC
(in 20 hours)
Expired Click to View Apr-19 @ 00:00 to Apr-19 @ 05:00
TAF OEKJ 182300Z 1900/2006 VRB03KT 7000 SKC
Wind Visibility Clouds
Variable at 3 knots 7,001 meters
  • Clear skies
Becoming Apr-19 @ 05:00 to Apr-20 @ 06:00
BECMG 1905/1907 02010KT
Wind Visibility Clouds
20° at 10 knots 7,001 meters
  • Clear skies
TAF OEKJ 182300Z 1900/2006 VRB03KT 7000 SKC BECMG 1905/1907 02010KT
Issued Apr-18 @ 23:00 UTC
(11 hours ago)
Valid From Apr-19 @ 00:00 UTC
(10 hours ago)
Valid To Apr-20 @ 06:00 UTC
(in 20 hours)
Apr-19 @ 00:00 - Apr-19 @ 05:00
Wind Visibility
Variable at 3 knots 7,001 meters
Clouds
  • Clear skies
Becoming Apr-19 @ 05:00 - Apr-20 @ 06:00
Wind Visibility
20° at 10 knots 7,001 meters
Clouds
  • Clear skies